< < Back
Terminal Aerodrome Forecast


Current Version              Previous Versions:   1  2  3  4  5  6  7  8  9  

Terminal Aerodrome Forecast

730
FTUS42 KTAE 280500
TAFDHN
TAF
KDHN 280520Z 2806/2906 VRB05KT P6SM SKC=

Latest METAR

430
SAUS70 KWBC 281100 RRA
MTRDHN
METAR KDHN 281053Z 04003KT 10SM CLR 17/16 A3005 RMK AO2 SLP172
T01720161


USA.gov is the U.S. government's official web portal to all federal, state and local government web resources and services.